This is the latest recevied weather packets stored in our database for station/object OM3WYM-13. If no packets are shown the sender has not sent any weather packets the latest 10 day(s).
| Time | Temp. | Humidity | Pressure | Rain* | Wind** | Luminosity | Snow |
|---|---|---|---|---|---|---|---|
| 1777573208 | 7.78° C | 36% | 1026.8 hPa | - | - | - | - |
| 1777572608 | 8.33° C | 35% | 1026.7 hPa | - | - | - | - |
| 1777572008 | 8.89° C | 33% | 1026.5 hPa | - | - | - | - |
| 1777571408 | 9.44° C | 32% | 1026.4 hPa | - | - | - | - |
| 1777570808 | 9.44° C | 31% | 1026.2 hPa | - | - | - | - |
| 1777570208 | 10° C | 31% | 1026 hPa | - | - | - | - |
| 1777569608 | 10.56° C | 30% | 1025.9 hPa | - | - | - | - |
| 1777569008 | 11.11° C | 28% | 1025.8 hPa | - | - | - | - |
| 1777568408 | 12.22° C | 27% | 1025.7 hPa | - | - | - | - |
| 1777567808 | 13.33° C | 25% | 1025.5 hPa | - | - | - | - |
| 1777567208 | 14.44° C | 24% | 1025.3 hPa | - | - | - | - |
| 1777566608 | 14.44° C | 23% | 1025.1 hPa | - | - | - | - |
| 1777566008 | 14.44° C | 24% | 1025.2 hPa | - | - | - | - |
| 1777565408 | 15° C | 24% | 1025.2 hPa | - | - | - | - |
| 1777564808 | 15° C | 23% | 1025.3 hPa | - | - | - | - |
| 1777564208 | 15.56° C | 22% | 1025.2 hPa | - | - | - | - |
| 1777563610 | 16.11° C | 21% | 1025.1 hPa | - | - | - | - |
| 1777563008 | 16.67° C | 21% | 1025 hPa | - | - | - | - |
| 1777562408 | 16.67° C | 21% | 1025 hPa | - | - | - | - |
| 1777561808 | 16.11° C | 21% | 1025.1 hPa | - | - | - | - |
| 1777561208 | 16.67° C | 21% | 1025 hPa | - | - | - | - |
| 1777560608 | 15.56° C | 21% | 1025.3 hPa | - | - | - | - |
| 1777560008 | 17.22° C | 20% | 1024.8 hPa | - | - | - | - |
| 1777559408 | 16.67° C | 21% | 1025 hPa | - | - | - | - |
| 1777558808 | 17.78° C | 20% | 1024.9 hPa | - | - | - | - |
* Rain since midnight (hover to see other rain measurements)
** Current wind speed in m/s (hover to see current wind gust speed)